sensor_id;sensor_type;location;lat;lon;timestamp;P1;durP1;ratioP1;P2;durP2;ratioP2
8219;SDS011;4151;51.110;7.020;2023-03-01T00:01:52;7.80;;;5.00;;
8219;SDS011;4151;51.110;7.020;2023-03-01T00:04:18;6.10;;;4.70;;
8219;SDS011;4151;51.110;7.020;2023-03-01T00:06:43;8.47;;;5.27;;
8219;SDS011;4151;51.110;7.020;2023-03-01T00:09:12;11.73;;;5.43;;
8219;SDS011;4151;51.110;7.020;2023-03-01T00:11:39;8.20;;;4.90;;
8219;SDS011;4151;51.110;7.020;2023-03-01T00:14:05;7.67;;;5.37;;
8219;SDS011;4151;51.110;7.020;2023-03-01T00:16:32;10.70;;;5.20;;
8219;SDS011;4151;51.110;7.020;2023-03-01T00:18:59;9.90;;;5.57;;
8219;SDS011;4151;51.110;7.020;2023-03-01T00:21:26;7.10;;;4.40;;
8219;SDS011;4151;51.110;7.020;2023-03-01T00:23:53;9.20;;;5.87;;
8219;SDS011;4151;51.110;7.020;2023-03-01T00:26:20;8.40;;;6.00;;
8219;SDS011;4151;51.110;7.020;2023-03-01T00:28:47;14.07;;;5.20;;
8219;SDS011;4151;51.110;7.020;2023-03-01T00:31:16;8.67;;;4.90;;
8219;SDS011;4151;51.110;7.020;2023-03-01T00:33:44;11.80;;;5.10;;
8219;SDS011;4151;51.110;7.020;2023-03-01T00:36:12;12.20;;;5.50;;
8219;SDS011;4151;51.110;7.020;2023-03-01T00:38:40;10.93;;;5.10;;
8219;SDS011;4151;51.110;7.020;2023-03-01T00:41:07;11.50;;;6.17;;
8219;SDS011;4151;51.110;7.020;2023-03-01T00:43:38;9.90;;;4.93;;
8219;SDS011;4151;51.110;7.020;2023-03-01T00:46:04;8.87;;;4.80;;
8219;SDS011;4151;51.110;7.020;2023-03-01T00:48:32;8.90;;;5.20;;
8219;SDS011;4151;51.110;7.020;2023-03-01T00:51:04;8.60;;;4.93;;
8219;SDS011;4151;51.110;7.020;2023-03-01T00:53:30;9.23;;;5.20;;
8219;SDS011;4151;51.110;7.020;2023-03-01T00:55:57;13.23;;;5.43;;
8219;SDS011;4151;51.110;7.020;2023-03-01T00:58:23;12.27;;;5.90;;
8219;SDS011;4151;51.110;7.020;2023-03-01T01:00:49;12.10;;;5.30;;
8219;SDS011;4151;51.110;7.020;2023-03-01T01:03:15;13.93;;;5.70;;
8219;SDS011;4151;51.110;7.020;2023-03-01T01:05:40;15.70;;;5.30;;
8219;SDS011;4151;51.110;7.020;2023-03-01T01:08:06;10.07;;;4.57;;
8219;SDS011;4151;51.110;7.020;2023-03-01T01:10:33;11.00;;;5.10;;
8219;SDS011;4151;51.110;7.020;2023-03-01T01:12:59;12.50;;;6.00;;
8219;SDS011;4151;51.110;7.020;2023-03-01T01:15:26;8.43;;;5.20;;
8219;SDS011;4151;51.110;7.020;2023-03-01T01:17:51;7.93;;;5.00;;
8219;SDS011;4151;51.110;7.020;2023-03-01T01:20:17;7.00;;;4.90;;
8219;SDS011;4151;51.110;7.020;2023-03-01T01:22:43;9.23;;;5.20;;
8219;SDS011;4151;51.110;7.020;2023-03-01T01:25:08;9.37;;;5.23;;
8219;SDS011;4151;51.110;7.020;2023-03-01T01:27:35;11.10;;;5.67;;
8219;SDS011;4151;51.110;7.020;2023-03-01T01:30:01;8.00;;;5.50;;
8219;SDS011;4151;51.110;7.020;2023-03-01T01:32:27;11.53;;;5.80;;
8219;SDS011;4151;51.110;7.020;2023-03-01T01:34:53;12.97;;;5.73;;
8219;SDS011;4151;51.110;7.020;2023-03-01T01:37:18;8.97;;;5.40;;
8219;SDS011;4151;51.110;7.020;2023-03-01T01:39:44;11.07;;;5.90;;
8219;SDS011;4151;51.110;7.020;2023-03-01T01:42:15;6.20;;;4.73;;
8219;SDS011;4151;51.110;7.020;2023-03-01T01:44:42;12.00;;;5.70;;
8219;SDS011;4151;51.110;7.020;2023-03-01T01:47:28;10.87;;;5.80;;
8219;SDS011;4151;51.110;7.020;2023-03-01T01:49:55;10.97;;;5.70;;
8219;SDS011;4151;51.110;7.020;2023-03-01T01:52:26;7.87;;;5.20;;
8219;SDS011;4151;51.110;7.020;2023-03-01T01:57:41;11.20;;;6.70;;
8219;SDS011;4151;51.110;7.020;2023-03-01T02:00:12;11.30;;;5.60;;
8219;SDS011;4151;51.110;7.020;2023-03-01T02:02:41;8.80;;;6.00;;
8219;SDS011;4151;51.110;7.020;2023-03-01T02:05:15;10.73;;;5.13;;
8219;SDS011;4151;51.110;7.020;2023-03-01T02:07:49;10.83;;;5.47;;
8219;SDS011;4151;51.110;7.020;2023-03-01T02:10:15;9.87;;;5.97;;
8219;SDS011;4151;51.110;7.020;2023-03-01T02:12:40;7.73;;;5.80;;
8219;SDS011;4151;51.110;7.020;2023-03-01T02:15:07;12.23;;;5.30;;
8219;SDS011;4151;51.110;7.020;2023-03-01T02:17:32;10.70;;;6.00;;
8219;SDS011;4151;51.110;7.020;2023-03-01T02:20:15;11.77;;;5.53;;
8219;SDS011;4151;51.110;7.020;2023-03-01T02:22:50;10.10;;;5.40;;
8219;SDS011;4151;51.110;7.020;2023-03-01T02:25:21;9.97;;;5.77;;
8219;SDS011;4151;51.110;7.020;2023-03-01T02:27:49;9.07;;;5.60;;
8219;SDS011;4151;51.110;7.020;2023-03-01T02:30:26;11.70;;;6.17;;
8219;SDS011;4151;51.110;7.020;2023-03-01T02:32:53;12.17;;;6.37;;
8219;SDS011;4151;51.110;7.020;2023-03-01T02:35:27;12.07;;;6.57;;
8219;SDS011;4151;51.110;7.020;2023-03-01T02:37:59;11.73;;;6.63;;
8219;SDS011;4151;51.110;7.020;2023-03-01T02:40:27;10.53;;;6.00;;
8219;SDS011;4151;51.110;7.020;2023-03-01T02:42:55;13.13;;;6.73;;
8219;SDS011;4151;51.110;7.020;2023-03-01T02:45:22;12.13;;;6.67;;
8219;SDS011;4151;51.110;7.020;2023-03-01T02:47:48;11.23;;;5.73;;
8219;SDS011;4151;51.110;7.020;2023-03-01T02:51:02;16.13;;;6.13;;
8219;SDS011;4151;51.110;7.020;2023-03-01T02:53:13;13.60;;;6.90;;
8219;SDS011;4151;51.110;7.020;2023-03-01T02:55:46;11.20;;;6.10;;
8219;SDS011;4151;51.110;7.020;2023-03-01T02:58:13;22.00;;;6.60;;
8219;SDS011;4151;51.110;7.020;2023-03-01T03:00:40;11.57;;;6.57;;
8219;SDS011;4151;51.110;7.020;2023-03-01T03:03:15;15.60;;;7.70;;
8219;SDS011;4151;51.110;7.020;2023-03-01T03:05:42;11.80;;;7.03;;
8219;SDS011;4151;51.110;7.020;2023-03-01T03:08:07;14.20;;;7.03;;
8219;SDS011;4151;51.110;7.020;2023-03-01T03:10:35;10.50;;;7.03;;
8219;SDS011;4151;51.110;7.020;2023-03-01T03:13:03;12.80;;;5.93;;
8219;SDS011;4151;51.110;7.020;2023-03-01T03:15:34;11.50;;;6.30;;
8219;SDS011;4151;51.110;7.020;2023-03-01T03:18:02;12.50;;;6.60;;
8219;SDS011;4151;51.110;7.020;2023-03-01T03:20:29;13.63;;;6.83;;
8219;SDS011;4151;51.110;7.020;2023-03-01T03:22:55;9.37;;;5.50;;
8219;SDS011;4151;51.110;7.020;2023-03-01T03:25:23;11.10;;;6.77;;
8219;SDS011;4151;51.110;7.020;2023-03-01T03:27:50;11.00;;;6.80;;
8219;SDS011;4151;51.110;7.020;2023-03-01T03:30:21;13.93;;;6.90;;
8219;SDS011;4151;51.110;7.020;2023-03-01T03:32:48;14.30;;;6.60;;
8219;SDS011;4151;51.110;7.020;2023-03-01T03:35:18;10.97;;;6.37;;
8219;SDS011;4151;51.110;7.020;2023-03-01T03:37:49;12.70;;;7.03;;
8219;SDS011;4151;51.110;7.020;2023-03-01T03:40:38;14.80;;;7.03;;
8219;SDS011;4151;51.110;7.020;2023-03-01T03:43:06;11.53;;;6.33;;
8219;SDS011;4151;51.110;7.020;2023-03-01T03:45:33;11.67;;;6.77;;
8219;SDS011;4151;51.110;7.020;2023-03-01T03:48:00;10.40;;;5.90;;
8219;SDS011;4151;51.110;7.020;2023-03-01T03:50:27;15.53;;;6.90;;
8219;SDS011;4151;51.110;7.020;2023-03-01T03:52:53;12.10;;;6.23;;
8219;SDS011;4151;51.110;7.020;2023-03-01T03:55:18;10.87;;;6.60;;
8219;SDS011;4151;51.110;7.020;2023-03-01T03:57:45;12.60;;;8.07;;
8219;SDS011;4151;51.110;7.020;2023-03-01T04:00:16;14.40;;;7.60;;
8219;SDS011;4151;51.110;7.020;2023-03-01T04:02:43;14.33;;;7.37;;
8219;SDS011;4151;51.110;7.020;2023-03-01T04:05:11;13.93;;;7.43;;
8219;SDS011;4151;51.110;7.020;2023-03-01T04:07:39;15.03;;;7.20;;
8219;SDS011;4151;51.110;7.020;2023-03-01T04:10:06;18.93;;;7.53;;
8219;SDS011;4151;51.110;7.020;2023-03-01T04:12:34;15.23;;;7.23;;
8219;SDS011;4151;51.110;7.020;2023-03-01T04:15:00;14.90;;;7.00;;
8219;SDS011;4151;51.110;7.020;2023-03-01T04:17:37;19.17;;;7.70;;
8219;SDS011;4151;51.110;7.020;2023-03-01T04:20:04;14.53;;;7.87;;
8219;SDS011;4151;51.110;7.020;2023-03-01T04:22:30;15.23;;;8.47;;
8219;SDS011;4151;51.110;7.020;2023-03-01T04:24:56;13.33;;;8.00;;
8219;SDS011;4151;51.110;7.020;2023-03-01T04:27:23;11.27;;;6.50;;
8219;SDS011;4151;51.110;7.020;2023-03-01T04:29:48;17.07;;;7.37;;
8219;SDS011;4151;51.110;7.020;2023-03-01T04:32:14;16.43;;;7.70;;
8219;SDS011;4151;51.110;7.020;2023-03-01T04:34:41;13.23;;;7.60;;
8219;SDS011;4151;51.110;7.020;2023-03-01T04:37:06;12.60;;;7.50;;
8219;SDS011;4151;51.110;7.020;2023-03-01T04:39:32;13.37;;;7.10;;
8219;SDS011;4151;51.110;7.020;2023-03-01T04:41:57;19.20;;;7.80;;
8219;SDS011;4151;51.110;7.020;2023-03-01T04:44:23;16.23;;;7.50;;
8219;SDS011;4151;51.110;7.020;2023-03-01T04:46:49;9.53;;;6.90;;
8219;SDS011;4151;51.110;7.020;2023-03-01T04:49:15;16.20;;;7.20;;
8219;SDS011;4151;51.110;7.020;2023-03-01T04:51:41;20.10;;;7.80;;
8219;SDS011;4151;51.110;7.020;2023-03-01T04:54:06;14.63;;;7.23;;
8219;SDS011;4151;51.110;7.020;2023-03-01T04:56:33;18.57;;;8.60;;
8219;SDS011;4151;51.110;7.020;2023-03-01T04:58:59;13.63;;;7.53;;
8219;SDS011;4151;51.110;7.020;2023-03-01T05:01:25;12.20;;;6.83;;
8219;SDS011;4151;51.110;7.020;2023-03-01T05:03:51;16.13;;;7.03;;
8219;SDS011;4151;51.110;7.020;2023-03-01T05:06:17;13.93;;;7.33;;
8219;SDS011;4151;51.110;7.020;2023-03-01T05:08:44;17.13;;;7.10;;
8219;SDS011;4151;51.110;7.020;2023-03-01T05:11:10;17.07;;;8.20;;
8219;SDS011;4151;51.110;7.020;2023-03-01T05:13:37;29.70;;;12.53;;
8219;SDS011;4151;51.110;7.020;2023-03-01T05:16:03;53.13;;;21.00;;
8219;SDS011;4151;51.110;7.020;2023-03-01T05:18:31;27.73;;;12.70;;
8219;SDS011;4151;51.110;7.020;2023-03-01T05:21:05;23.73;;;11.00;;
8219;SDS011;4151;51.110;7.020;2023-03-01T05:23:32;15.27;;;8.27;;
8219;SDS011;4151;51.110;7.020;2023-03-01T05:25:59;14.30;;;7.73;;
8219;SDS011;4151;51.110;7.020;2023-03-01T05:28:26;16.17;;;7.90;;
8219;SDS011;4151;51.110;7.020;2023-03-01T05:30:53;16.80;;;7.60;;
8219;SDS011;4151;51.110;7.020;2023-03-01T05:33:19;13.20;;;7.57;;
8219;SDS011;4151;51.110;7.020;2023-03-01T05:35:46;16.03;;;8.00;;
8219;SDS011;4151;51.110;7.020;2023-03-01T05:38:13;15.60;;;9.27;;
8219;SDS011;4151;51.110;7.020;2023-03-01T05:40:40;14.50;;;8.20;;
8219;SDS011;4151;51.110;7.020;2023-03-01T05:43:08;14.93;;;8.43;;
8219;SDS011;4151;51.110;7.020;2023-03-01T05:45:35;14.57;;;7.63;;
8219;SDS011;4151;51.110;7.020;2023-03-01T05:48:02;13.13;;;7.20;;
8219;SDS011;4151;51.110;7.020;2023-03-01T05:50:31;15.77;;;8.17;;
8219;SDS011;4151;51.110;7.020;2023-03-01T05:52:59;18.53;;;9.30;;
8219;SDS011;4151;51.110;7.020;2023-03-01T05:55:27;15.77;;;8.57;;
8219;SDS011;4151;51.110;7.020;2023-03-01T05:57:53;14.80;;;8.60;;
8219;SDS011;4151;51.110;7.020;2023-03-01T06:00:19;14.63;;;7.97;;
8219;SDS011;4151;51.110;7.020;2023-03-01T06:02:49;19.60;;;7.20;;
8219;SDS011;4151;51.110;7.020;2023-03-01T06:05:16;13.40;;;7.80;;
8219;SDS011;4151;51.110;7.020;2023-03-01T06:07:42;17.10;;;8.47;;
8219;SDS011;4151;51.110;7.020;2023-03-01T06:10:08;14.27;;;8.60;;
8219;SDS011;4151;51.110;7.020;2023-03-01T06:12:35;23.43;;;11.10;;
8219;SDS011;4151;51.110;7.020;2023-03-01T06:15:02;14.47;;;8.20;;
8219;SDS011;4151;51.110;7.020;2023-03-01T06:17:29;16.53;;;7.43;;
8219;SDS011;4151;51.110;7.020;2023-03-01T06:19:56;12.60;;;8.60;;
8219;SDS011;4151;51.110;7.020;2023-03-01T06:22:22;16.23;;;7.73;;
8219;SDS011;4151;51.110;7.020;2023-03-01T06:24:47;13.10;;;7.80;;
8219;SDS011;4151;51.110;7.020;2023-03-01T06:27:13;15.70;;;8.37;;
8219;SDS011;4151;51.110;7.020;2023-03-01T06:29:38;16.00;;;8.47;;
8219;SDS011;4151;51.110;7.020;2023-03-01T06:32:04;16.13;;;8.30;;
8219;SDS011;4151;51.110;7.020;2023-03-01T06:34:30;19.70;;;7.70;;
8219;SDS011;4151;51.110;7.020;2023-03-01T06:36:56;14.97;;;6.83;;
8219;SDS011;4151;51.110;7.020;2023-03-01T06:39:21;19.30;;;8.70;;
8219;SDS011;4151;51.110;7.020;2023-03-01T06:41:47;15.50;;;7.70;;
8219;SDS011;4151;51.110;7.020;2023-03-01T06:44:12;16.70;;;7.57;;
8219;SDS011;4151;51.110;7.020;2023-03-01T06:46:38;14.23;;;7.30;;
8219;SDS011;4151;51.110;7.020;2023-03-01T06:49:05;18.03;;;9.17;;
8219;SDS011;4151;51.110;7.020;2023-03-01T06:51:34;22.03;;;8.37;;
8219;SDS011;4151;51.110;7.020;2023-03-01T06:54:05;16.03;;;8.53;;
8219;SDS011;4151;51.110;7.020;2023-03-01T06:56:31;16.90;;;8.43;;
8219;SDS011;4151;51.110;7.020;2023-03-01T06:58:57;15.13;;;7.93;;
8219;SDS011;4151;51.110;7.020;2023-03-01T07:01:23;15.37;;;7.53;;
8219;SDS011;4151;51.110;7.020;2023-03-01T07:03:48;15.33;;;8.47;;
8219;SDS011;4151;51.110;7.020;2023-03-01T07:06:14;14.63;;;7.60;;
8219;SDS011;4151;51.110;7.020;2023-03-01T07:08:40;19.63;;;9.63;;
8219;SDS011;4151;51.110;7.020;2023-03-01T07:11:05;13.47;;;7.40;;
8219;SDS011;4151;51.110;7.020;2023-03-01T07:13:31;17.13;;;8.00;;
8219;SDS011;4151;51.110;7.020;2023-03-01T07:15:57;14.33;;;8.23;;
8219;SDS011;4151;51.110;7.020;2023-03-01T07:18:22;22.63;;;9.40;;
8219;SDS011;4151;51.110;7.020;2023-03-01T07:20:48;17.10;;;8.87;;
8219;SDS011;4151;51.110;7.020;2023-03-01T07:23:14;19.70;;;9.10;;
8219;SDS011;4151;51.110;7.020;2023-03-01T07:25:40;14.63;;;8.50;;
8219;SDS011;4151;51.110;7.020;2023-03-01T07:28:06;18.87;;;9.17;;
8219;SDS011;4151;51.110;7.020;2023-03-01T07:30:31;27.93;;;8.37;;
8219;SDS011;4151;51.110;7.020;2023-03-01T07:32:57;17.53;;;8.03;;
8219;SDS011;4151;51.110;7.020;2023-03-01T07:35:26;15.57;;;7.93;;
8219;SDS011;4151;51.110;7.020;2023-03-01T07:37:52;17.40;;;8.40;;
8219;SDS011;4151;51.110;7.020;2023-03-01T07:40:18;15.00;;;8.80;;
8219;SDS011;4151;51.110;7.020;2023-03-01T07:42:44;20.53;;;8.20;;
8219;SDS011;4151;51.110;7.020;2023-03-01T07:45:10;16.10;;;8.20;;
8219;SDS011;4151;51.110;7.020;2023-03-01T07:47:36;13.63;;;7.80;;
8219;SDS011;4151;51.110;7.020;2023-03-01T07:50:02;16.30;;;8.40;;
8219;SDS011;4151;51.110;7.020;2023-03-01T07:52:28;15.20;;;8.00;;
8219;SDS011;4151;51.110;7.020;2023-03-01T07:54:55;16.90;;;8.73;;
8219;SDS011;4151;51.110;7.020;2023-03-01T07:57:21;13.03;;;7.23;;
8219;SDS011;4151;51.110;7.020;2023-03-01T07:59:46;18.03;;;8.50;;
8219;SDS011;4151;51.110;7.020;2023-03-01T08:02:12;16.17;;;7.80;;
8219;SDS011;4151;51.110;7.020;2023-03-01T08:04:37;15.47;;;7.80;;
8219;SDS011;4151;51.110;7.020;2023-03-01T08:07:04;17.23;;;9.60;;
8219;SDS011;4151;51.110;7.020;2023-03-01T08:09:30;16.20;;;9.03;;
8219;SDS011;4151;51.110;7.020;2023-03-01T08:11:56;14.57;;;8.47;;
8219;SDS011;4151;51.110;7.020;2023-03-01T08:14:24;15.70;;;8.83;;
8219;SDS011;4151;51.110;7.020;2023-03-01T08:16:50;13.97;;;8.43;;
8219;SDS011;4151;51.110;7.020;2023-03-01T08:19:15;16.20;;;8.67;;
8219;SDS011;4151;51.110;7.020;2023-03-01T08:21:42;14.87;;;8.07;;
8219;SDS011;4151;51.110;7.020;2023-03-01T08:24:07;16.93;;;8.30;;
8219;SDS011;4151;51.110;7.020;2023-03-01T08:26:35;19.00;;;8.93;;
8219;SDS011;4151;51.110;7.020;2023-03-01T08:29:01;15.10;;;8.33;;
8219;SDS011;4151;51.110;7.020;2023-03-01T08:31:28;16.40;;;8.37;;
8219;SDS011;4151;51.110;7.020;2023-03-01T08:33:56;11.73;;;7.17;;
8219;SDS011;4151;51.110;7.020;2023-03-01T08:36:25;18.13;;;8.73;;
8219;SDS011;4151;51.110;7.020;2023-03-01T08:38:52;10.70;;;7.60;;
8219;SDS011;4151;51.110;7.020;2023-03-01T08:41:18;13.13;;;8.00;;
8219;SDS011;4151;51.110;7.020;2023-03-01T08:43:44;11.43;;;7.47;;
8219;SDS011;4151;51.110;7.020;2023-03-01T08:46:11;20.10;;;8.63;;
8219;SDS011;4151;51.110;7.020;2023-03-01T08:48:40;16.73;;;8.70;;
8219;SDS011;4151;51.110;7.020;2023-03-01T08:51:12;16.37;;;8.90;;
8219;SDS011;4151;51.110;7.020;2023-03-01T08:53:40;17.47;;;8.63;;
8219;SDS011;4151;51.110;7.020;2023-03-01T08:56:06;17.50;;;8.27;;
8219;SDS011;4151;51.110;7.020;2023-03-01T08:58:32;27.03;;;13.70;;
8219;SDS011;4151;51.110;7.020;2023-03-01T09:00:58;16.00;;;9.27;;
8219;SDS011;4151;51.110;7.020;2023-03-01T09:03:24;16.20;;;8.47;;
8219;SDS011;4151;51.110;7.020;2023-03-01T09:05:50;13.17;;;8.30;;
8219;SDS011;4151;51.110;7.020;2023-03-01T09:08:17;15.53;;;8.67;;
8219;SDS011;4151;51.110;7.020;2023-03-01T09:10:43;15.23;;;7.63;;
8219;SDS011;4151;51.110;7.020;2023-03-01T09:13:09;11.30;;;7.13;;
8219;SDS011;4151;51.110;7.020;2023-03-01T09:15:38;21.20;;;7.93;;
8219;SDS011;4151;51.110;7.020;2023-03-01T09:18:04;17.90;;;8.43;;
8219;SDS011;4151;51.110;7.020;2023-03-01T09:20:30;12.30;;;7.67;;
8219;SDS011;4151;51.110;7.020;2023-03-01T09:22:56;13.13;;;8.20;;
8219;SDS011;4151;51.110;7.020;2023-03-01T09:25:22;13.97;;;8.10;;
8219;SDS011;4151;51.110;7.020;2023-03-01T09:27:52;11.17;;;7.47;;
8219;SDS011;4151;51.110;7.020;2023-03-01T09:30:18;18.27;;;7.97;;
8219;SDS011;4151;51.110;7.020;2023-03-01T09:32:44;13.73;;;7.40;;
8219;SDS011;4151;51.110;7.020;2023-03-01T09:35:10;12.23;;;6.80;;
8219;SDS011;4151;51.110;7.020;2023-03-01T09:37:36;15.90;;;8.50;;
8219;SDS011;4151;51.110;7.020;2023-03-01T09:40:06;12.50;;;8.10;;
8219;SDS011;4151;51.110;7.020;2023-03-01T09:42:44;11.57;;;6.87;;
8219;SDS011;4151;51.110;7.020;2023-03-01T09:45:40;18.20;;;7.57;;
8219;SDS011;4151;51.110;7.020;2023-03-01T09:48:12;11.23;;;6.93;;
8219;SDS011;4151;51.110;7.020;2023-03-01T09:50:42;12.40;;;7.70;;
8219;SDS011;4151;51.110;7.020;2023-03-01T09:53:15;16.40;;;8.47;;
8219;SDS011;4151;51.110;7.020;2023-03-01T09:56:00;18.80;;;7.87;;
8219;SDS011;4151;51.110;7.020;2023-03-01T09:58:41;15.30;;;8.27;;
8219;SDS011;4151;51.110;7.020;2023-03-01T10:04:05;12.67;;;7.70;;
8219;SDS011;4151;51.110;7.020;2023-03-01T10:07:07;15.70;;;7.60;;
8219;SDS011;4151;51.110;7.020;2023-03-01T10:09:42;13.83;;;7.80;;
8219;SDS011;4151;51.110;7.020;2023-03-01T10:12:13;14.10;;;7.77;;
8219;SDS011;4151;51.110;7.020;2023-03-01T10:17:30;12.90;;;7.73;;
8219;SDS011;4151;51.110;7.020;2023-03-01T10:22:47;10.20;;;7.30;;
8219;SDS011;4151;51.110;7.020;2023-03-01T10:26:05;19.27;;;8.30;;
8219;SDS011;4151;51.110;7.020;2023-03-01T10:28:10;14.50;;;8.03;;
8219;SDS011;4151;51.110;7.020;2023-03-01T10:30:43;10.90;;;7.23;;
8219;SDS011;4151;51.110;7.020;2023-03-01T10:33:30;12.60;;;7.30;;
8219;SDS011;4151;51.110;7.020;2023-03-01T10:35:57;14.03;;;8.60;;
8219;SDS011;4151;51.110;7.020;2023-03-01T10:38:22;16.43;;;7.97;;
8219;SDS011;4151;51.110;7.020;2023-03-01T10:43:30;14.13;;;8.10;;
8219;SDS011;4151;51.110;7.020;2023-03-01T10:46:23;13.33;;;8.27;;
8219;SDS011;4151;51.110;7.020;2023-03-01T10:51:48;12.10;;;7.83;;
8219;SDS011;4151;51.110;7.020;2023-03-01T10:54:20;14.80;;;8.50;;
8219;SDS011;4151;51.110;7.020;2023-03-01T10:56:55;14.60;;;8.67;;
8219;SDS011;4151;51.110;7.020;2023-03-01T11:11:46;13.27;;;8.80;;
8219;SDS011;4151;51.110;7.020;2023-03-01T11:14:20;15.60;;;9.10;;
8219;SDS011;4151;51.110;7.020;2023-03-01T11:16:47;16.40;;;9.80;;
8219;SDS011;4151;51.110;7.020;2023-03-01T11:19:22;15.80;;;8.67;;
8219;SDS011;4151;51.110;7.020;2023-03-01T11:22:05;12.93;;;8.00;;
8219;SDS011;4151;51.110;7.020;2023-03-01T11:24:45;11.07;;;7.43;;
8219;SDS011;4151;51.110;7.020;2023-03-01T11:27:26;17.60;;;8.00;;
8219;SDS011;4151;51.110;7.020;2023-03-01T11:29:57;16.53;;;8.00;;
8219;SDS011;4151;51.110;7.020;2023-03-01T11:32:35;15.30;;;9.03;;
8219;SDS011;4151;51.110;7.020;2023-03-01T11:35:16;15.60;;;9.27;;
8219;SDS011;4151;51.110;7.020;2023-03-01T11:37:52;14.27;;;8.90;;
8219;SDS011;4151;51.110;7.020;2023-03-01T11:40:29;15.70;;;8.90;;
8219;SDS011;4151;51.110;7.020;2023-03-01T11:46:07;11.50;;;7.50;;
8219;SDS011;4151;51.110;7.020;2023-03-01T11:51:24;12.13;;;7.90;;
8219;SDS011;4151;51.110;7.020;2023-03-01T11:54:06;11.30;;;7.97;;
8219;SDS011;4151;51.110;7.020;2023-03-01T11:57:02;19.33;;;8.33;;
8219;SDS011;4151;51.110;7.020;2023-03-01T12:23:49;13.40;;;8.40;;
8219;SDS011;4151;51.110;7.020;2023-03-01T12:29:08;13.67;;;8.40;;
8219;SDS011;4151;51.110;7.020;2023-03-01T12:46:10;11.53;;;7.03;;
8219;SDS011;4151;51.110;7.020;2023-03-01T12:51:23;16.10;;;8.10;;
8219;SDS011;4151;51.110;7.020;2023-03-01T12:53:51;10.77;;;7.70;;
8219;SDS011;4151;51.110;7.020;2023-03-01T12:56:23;13.83;;;7.47;;
8219;SDS011;4151;51.110;7.020;2023-03-01T13:01:45;16.93;;;9.37;;
8219;SDS011;4151;51.110;7.020;2023-03-01T13:10:10;15.40;;;9.80;;
8219;SDS011;4151;51.110;7.020;2023-03-01T13:13:08;12.53;;;7.20;;
8219;SDS011;4151;51.110;7.020;2023-03-01T13:15:39;12.83;;;8.80;;
8219;SDS011;4151;51.110;7.020;2023-03-01T13:26:19;18.23;;;8.00;;
8219;SDS011;4151;51.110;7.020;2023-03-01T13:28:46;11.00;;;7.30;;
8219;SDS011;4151;51.110;7.020;2023-03-01T13:39:26;19.33;;;7.97;;
8219;SDS011;4151;51.110;7.020;2023-03-01T13:41:53;17.30;;;7.77;;
8219;SDS011;4151;51.110;7.020;2023-03-01T13:46:50;10.67;;;7.20;;
8219;SDS011;4151;51.110;7.020;2023-03-01T13:49:21;11.77;;;7.30;;
8219;SDS011;4151;51.110;7.020;2023-03-01T13:51:50;13.30;;;7.47;;
8219;SDS011;4151;51.110;7.020;2023-03-01T13:54:17;10.60;;;6.60;;
8219;SDS011;4151;51.110;7.020;2023-03-01T13:56:56;15.10;;;8.37;;
8219;SDS011;4151;51.110;7.020;2023-03-01T13:59:24;14.83;;;7.13;;
8219;SDS011;4151;51.110;7.020;2023-03-01T14:01:58;12.73;;;8.07;;
8219;SDS011;4151;51.110;7.020;2023-03-01T14:04:29;12.97;;;7.97;;
8219;SDS011;4151;51.110;7.020;2023-03-01T14:07:09;14.37;;;7.67;;
8219;SDS011;4151;51.110;7.020;2023-03-01T14:09:43;13.57;;;8.10;;
8219;SDS011;4151;51.110;7.020;2023-03-01T14:12:20;16.13;;;7.60;;
8219;SDS011;4151;51.110;7.020;2023-03-01T14:15:26;13.20;;;8.10;;
8219;SDS011;4151;51.110;7.020;2023-03-01T14:18:15;17.50;;;7.30;;
8219;SDS011;4151;51.110;7.020;2023-03-01T14:20:51;13.53;;;7.57;;
8219;SDS011;4151;51.110;7.020;2023-03-01T14:23:18;12.67;;;7.60;;
8219;SDS011;4151;51.110;7.020;2023-03-01T14:25:48;12.33;;;7.10;;
8219;SDS011;4151;51.110;7.020;2023-03-01T14:28:19;14.00;;;8.07;;
8219;SDS011;4151;51.110;7.020;2023-03-01T14:30:50;14.33;;;8.40;;
8219;SDS011;4151;51.110;7.020;2023-03-01T14:33:27;14.03;;;7.97;;
8219;SDS011;4151;51.110;7.020;2023-03-01T14:36:08;13.67;;;7.73;;
8219;SDS011;4151;51.110;7.020;2023-03-01T14:38:36;14.13;;;8.27;;
8219;SDS011;4151;51.110;7.020;2023-03-01T14:41:06;11.60;;;6.93;;
8219;SDS011;4151;51.110;7.020;2023-03-01T14:43:55;10.40;;;6.87;;
8219;SDS011;4151;51.110;7.020;2023-03-01T14:49:02;11.67;;;7.00;;
8219;SDS011;4151;51.110;7.020;2023-03-01T14:51:39;18.10;;;8.30;;
8219;SDS011;4151;51.110;7.020;2023-03-01T14:54:21;12.20;;;7.50;;
8219;SDS011;4151;51.110;7.020;2023-03-01T14:56:52;14.60;;;7.57;;
8219;SDS011;4151;51.110;7.020;2023-03-01T14:59:23;13.30;;;7.80;;
8219;SDS011;4151;51.110;7.020;2023-03-01T15:01:50;16.17;;;7.87;;
8219;SDS011;4151;51.110;7.020;2023-03-01T15:04:18;9.77;;;6.40;;
8219;SDS011;4151;51.110;7.020;2023-03-01T15:06:44;11.40;;;7.70;;
8219;SDS011;4151;51.110;7.020;2023-03-01T15:09:12;11.87;;;6.63;;
8219;SDS011;4151;51.110;7.020;2023-03-01T15:11:41;11.03;;;7.37;;
8219;SDS011;4151;51.110;7.020;2023-03-01T15:16:54;16.30;;;6.50;;
8219;SDS011;4151;51.110;7.020;2023-03-01T15:19:20;12.73;;;6.47;;
8219;SDS011;4151;51.110;7.020;2023-03-01T15:21:49;13.03;;;7.57;;
8219;SDS011;4151;51.110;7.020;2023-03-01T15:24:20;10.70;;;7.20;;
8219;SDS011;4151;51.110;7.020;2023-03-01T15:26:50;9.93;;;6.77;;
8219;SDS011;4151;51.110;7.020;2023-03-01T15:29:22;13.73;;;7.10;;
8219;SDS011;4151;51.110;7.020;2023-03-01T15:31:55;12.50;;;6.77;;
8219;SDS011;4151;51.110;7.020;2023-03-01T15:34:36;10.43;;;6.57;;
8219;SDS011;4151;51.110;7.020;2023-03-01T15:37:04;12.10;;;7.00;;
8219;SDS011;4151;51.110;7.020;2023-03-01T15:39:32;14.20;;;7.17;;
8219;SDS011;4151;51.110;7.020;2023-03-01T15:42:03;12.37;;;7.20;;
8219;SDS011;4151;51.110;7.020;2023-03-01T15:44:37;10.00;;;6.60;;
8219;SDS011;4151;51.110;7.020;2023-03-01T15:47:22;10.93;;;6.67;;
8219;SDS011;4151;51.110;7.020;2023-03-01T15:49:51;11.77;;;6.90;;
8219;SDS011;4151;51.110;7.020;2023-03-01T15:54:53;12.07;;;6.10;;
8219;SDS011;4151;51.110;7.020;2023-03-01T15:57:24;11.00;;;6.40;;
8219;SDS011;4151;51.110;7.020;2023-03-01T15:59:49;14.60;;;6.60;;
8219;SDS011;4151;51.110;7.020;2023-03-01T16:02:15;13.30;;;6.50;;
8219;SDS011;4151;51.110;7.020;2023-03-01T16:04:41;9.80;;;6.90;;
8219;SDS011;4151;51.110;7.020;2023-03-01T16:07:08;14.47;;;6.80;;
8219;SDS011;4151;51.110;7.020;2023-03-01T16:09:34;13.73;;;6.60;;
8219;SDS011;4151;51.110;7.020;2023-03-01T16:12:00;9.33;;;6.00;;
8219;SDS011;4151;51.110;7.020;2023-03-01T16:14:26;10.17;;;6.10;;
8219;SDS011;4151;51.110;7.020;2023-03-01T16:16:52;8.70;;;6.10;;
8219;SDS011;4151;51.110;7.020;2023-03-01T16:19:18;12.13;;;6.57;;
8219;SDS011;4151;51.110;7.020;2023-03-01T16:21:43;12.67;;;6.20;;
8219;SDS011;4151;51.110;7.020;2023-03-01T16:24:11;8.87;;;6.50;;
8219;SDS011;4151;51.110;7.020;2023-03-01T16:26:38;14.07;;;6.00;;
8219;SDS011;4151;51.110;7.020;2023-03-01T16:29:03;8.90;;;5.53;;
8219;SDS011;4151;51.110;7.020;2023-03-01T16:31:29;9.60;;;5.50;;
8219;SDS011;4151;51.110;7.020;2023-03-01T16:33:56;14.57;;;6.03;;
8219;SDS011;4151;51.110;7.020;2023-03-01T16:36:23;10.90;;;6.33;;
8219;SDS011;4151;51.110;7.020;2023-03-01T16:38:50;9.20;;;6.23;;
8219;SDS011;4151;51.110;7.020;2023-03-01T16:41:18;9.60;;;6.13;;
8219;SDS011;4151;51.110;7.020;2023-03-01T16:43:45;11.70;;;6.80;;
8219;SDS011;4151;51.110;7.020;2023-03-01T16:46:16;14.57;;;6.23;;
8219;SDS011;4151;51.110;7.020;2023-03-01T16:48:46;14.40;;;6.67;;
8219;SDS011;4151;51.110;7.020;2023-03-01T16:51:12;8.97;;;5.87;;
8219;SDS011;4151;51.110;7.020;2023-03-01T16:53:39;12.20;;;6.70;;
8219;SDS011;4151;51.110;7.020;2023-03-01T16:56:06;13.70;;;7.00;;
8219;SDS011;4151;51.110;7.020;2023-03-01T16:58:34;12.23;;;5.57;;
8219;SDS011;4151;51.110;7.020;2023-03-01T17:01:04;9.23;;;6.13;;
8219;SDS011;4151;51.110;7.020;2023-03-01T17:03:41;10.40;;;6.27;;
8219;SDS011;4151;51.110;7.020;2023-03-01T17:06:09;11.03;;;6.27;;
8219;SDS011;4151;51.110;7.020;2023-03-01T17:08:37;9.23;;;5.70;;
8219;SDS011;4151;51.110;7.020;2023-03-01T17:11:04;11.67;;;6.27;;